Hauptseite
METAR-TAF:

METAR-TAF

Flughäfen :

Reschenpass, Italien

Breite: 46-50N, Länge: 010-30E, Höhe: 1800 m

Beobachtung

Neuester Wetterbericht von vor 31 Minuten, um 17:55 UTC
Wind 3 kt aus Nordost
Temperatur 11°C
Luftfeuchtigkeit 94%
Luftdruck 1007 hPa
Sichtweite: 2000 m
Aufgelockert bewölkt in der Höhe von 800 ft
Durchbrochene Bewölkung in der Höhe von 1500 ft
Regen, feuchter Dunst

METAR: LIVE 301755Z 05003KT 2000 RA BR SCT008 BKN015 11/10 Q1007 RMK OVC VIS MIN 2000

Zeit: 20:26 (18:26 UTC)


TAF: fehlend

Wetterbeobachtungen und Prognosen von mehr als 4000 Flughäfen (METAR und TAF Bericht).

Die verfügbaren Stationen werden durch gelbe und rote Markierungen auf der Karte dargestellt.

Führen Sie die Maus auf sie, um den Namen der Station zu sehen.

Darauf klicken, um die Beobachtung von Wetterbeobachtungen und Prognosen zu sehen.

Um die Karte zu ändern : klicken Sie auf den grünen Tasten mit einem schwarzen Kreuz Zum Vergrößern, auf den grünen Button mit einem Gedankenstrich zu verkleinern, oder auf die grünen Pfeile für benachbarte Karten.


METAR-TAF: